sensor_id;sensor_type;location;lat;lon;timestamp;pressure;altitude;pressure_sealevel;temperature
49154;BMP280;49455;52.252;9.124;2023-02-16T00:04:31;100373.63;;;5.05
49154;BMP280;49455;52.252;9.124;2023-02-16T00:09:32;100382.88;;;5.17
49154;BMP280;49455;52.252;9.124;2023-02-16T00:14:34;100379.34;;;5.01
49154;BMP280;49455;52.252;9.124;2023-02-16T00:19:40;100373.28;;;4.99
49154;BMP280;49455;52.252;9.124;2023-02-16T00:24:40;100363.56;;;5.08
49154;BMP280;49455;52.252;9.124;2023-02-16T00:29:41;100357.31;;;5.31
49154;BMP280;49455;52.252;9.124;2023-02-16T00:34:42;100351.97;;;5.57
49154;BMP280;49455;52.252;9.124;2023-02-16T00:39:43;100361.22;;;5.69
49154;BMP280;49455;52.252;9.124;2023-02-16T00:44:49;100361.34;;;5.71
49154;BMP280;49455;52.252;9.124;2023-02-16T00:49:52;100351.97;;;5.71
49154;BMP280;49455;52.252;9.124;2023-02-16T00:54:53;100339.81;;;5.69
49154;BMP280;49455;52.252;9.124;2023-02-16T01:00:04;100344.09;;;5.82
49154;BMP280;49455;52.252;9.124;2023-02-16T01:05:05;100340.59;;;5.96
49154;BMP280;49455;52.252;9.124;2023-02-16T01:10:06;100337.34;;;5.84
49154;BMP280;49455;52.252;9.124;2023-02-16T01:15:12;100341.88;;;5.74
49154;BMP280;49455;52.252;9.124;2023-02-16T01:20:15;100348.97;;;5.64
49154;BMP280;49455;52.252;9.124;2023-02-16T01:25:16;100334.78;;;5.70
49154;BMP280;49455;52.252;9.124;2023-02-16T01:30:20;100325.06;;;5.65
49154;BMP280;49455;52.252;9.124;2023-02-16T01:35:23;100331.78;;;5.63
49154;BMP280;49455;52.252;9.124;2023-02-16T01:45:35;100309.78;;;5.52
49154;BMP280;49455;52.252;9.124;2023-02-16T01:51:11;100298.47;;;5.63
49154;BMP280;49455;52.252;9.124;2023-02-16T01:56:22;100298.47;;;5.63
49154;BMP280;49455;52.252;9.124;2023-02-16T02:01:36;100306.34;;;5.80
49154;BMP280;49455;52.252;9.124;2023-02-16T02:06:37;100319.50;;;5.86
49154;BMP280;49455;52.252;9.124;2023-02-16T02:11:48;100311.03;;;5.72
49154;BMP280;49455;52.252;9.124;2023-02-16T02:16:58;100313.41;;;5.70
49154;BMP280;49455;52.252;9.124;2023-02-16T02:27:53;100295.41;;;5.54
49154;BMP280;49455;52.252;9.124;2023-02-16T02:33:19;100295.91;;;5.63
49154;BMP280;49455;52.252;9.124;2023-02-16T02:44:11;100312.41;;;5.68
49154;BMP280;49455;52.252;9.124;2023-02-16T02:49:14;100305.28;;;5.62
49154;BMP280;49455;52.252;9.124;2023-02-16T02:59:18;100290.66;;;5.45
49154;BMP280;49455;52.252;9.124;2023-02-16T03:04:23;100313.63;;;5.44
49154;BMP280;49455;52.252;9.124;2023-02-16T03:09:25;100317.53;;;5.23
49154;BMP280;49455;52.252;9.124;2023-02-16T03:14:31;100316.94;;;4.99
49154;BMP280;49455;52.252;9.124;2023-02-16T03:19:32;100328.13;;;4.72
49154;BMP280;49455;52.252;9.124;2023-02-16T03:24:36;100311.19;;;4.74
49154;BMP280;49455;52.252;9.124;2023-02-16T03:29:37;100316.47;;;4.91
49154;BMP280;49455;52.252;9.124;2023-02-16T03:34:38;100306.34;;;4.93
49154;BMP280;49455;52.252;9.124;2023-02-16T03:39:38;100310.13;;;5.13
49154;BMP280;49455;52.252;9.124;2023-02-16T03:44:39;100301.09;;;5.34
49154;BMP280;49455;52.252;9.124;2023-02-16T03:49:39;100286.97;;;5.26
49154;BMP280;49455;52.252;9.124;2023-02-16T03:54:39;100288.91;;;5.16
49154;BMP280;49455;52.252;9.124;2023-02-16T03:59:40;100303.41;;;4.87
49154;BMP280;49455;52.252;9.124;2023-02-16T04:04:40;100306.88;;;4.46
49154;BMP280;49455;52.252;9.124;2023-02-16T04:09:41;100305.69;;;4.00
49154;BMP280;49455;52.252;9.124;2023-02-16T04:14:41;100296.75;;;3.93
49154;BMP280;49455;52.252;9.124;2023-02-16T04:19:41;100285.53;;;4.04
49154;BMP280;49455;52.252;9.124;2023-02-16T04:24:42;100288.03;;;4.17
49154;BMP280;49455;52.252;9.124;2023-02-16T04:29:42;100289.97;;;4.21
49154;BMP280;49455;52.252;9.124;2023-02-16T04:34:42;100283.50;;;4.13
49154;BMP280;49455;52.252;9.124;2023-02-16T04:39:43;100258.25;;;4.32
49154;BMP280;49455;52.252;9.124;2023-02-16T04:44:43;100251.84;;;4.67
49154;BMP280;49455;52.252;9.124;2023-02-16T04:49:44;100269.13;;;4.56
49154;BMP280;49455;52.252;9.124;2023-02-16T04:54:44;100278.31;;;4.39
49154;BMP280;49455;52.252;9.124;2023-02-16T04:59:45;100276.00;;;4.57
49154;BMP280;49455;52.252;9.124;2023-02-16T05:04:45;100264.13;;;4.58
49154;BMP280;49455;52.252;9.124;2023-02-16T05:09:45;100273.38;;;4.70
49154;BMP280;49455;52.252;9.124;2023-02-16T05:14:46;100250.00;;;4.64
49154;BMP280;49455;52.252;9.124;2023-02-16T05:19:49;100258.53;;;4.51
49154;BMP280;49455;52.252;9.124;2023-02-16T05:24:49;100261.16;;;4.38
49154;BMP280;49455;52.252;9.124;2023-02-16T05:29:50;100261.69;;;4.32
49154;BMP280;49455;52.252;9.124;2023-02-16T05:34:51;100257.41;;;4.19
49154;BMP280;49455;52.252;9.124;2023-02-16T05:39:51;100264.81;;;4.14
49154;BMP280;49455;52.252;9.124;2023-02-16T05:44:51;100265.19;;;4.20
49154;BMP280;49455;52.252;9.124;2023-02-16T05:49:52;100267.50;;;4.30
49154;BMP280;49455;52.252;9.124;2023-02-16T05:54:52;100264.72;;;4.40
49154;BMP280;49455;52.252;9.124;2023-02-16T05:59:53;100265.19;;;4.20
49154;BMP280;49455;52.252;9.124;2023-02-16T06:04:53;100262.50;;;4.31
49154;BMP280;49455;52.252;9.124;2023-02-16T06:09:53;100264.56;;;4.24
49154;BMP280;49455;52.252;9.124;2023-02-16T06:14:54;100275.03;;;4.14
49154;BMP280;49455;52.252;9.124;2023-02-16T06:19:54;100280.16;;;4.14
49154;BMP280;49455;52.252;9.124;2023-02-16T06:24:54;100283.03;;;4.33
49154;BMP280;49455;52.252;9.124;2023-02-16T06:29:55;100274.31;;;4.44
49154;BMP280;49455;52.252;9.124;2023-02-16T06:34:55;100276.69;;;4.41
49154;BMP280;49455;52.252;9.124;2023-02-16T06:39:55;100276.00;;;4.43
49154;BMP280;49455;52.252;9.124;2023-02-16T06:44:56;100275.28;;;4.31
49154;BMP280;49455;52.252;9.124;2023-02-16T06:49:56;100277.81;;;4.17
49154;BMP280;49455;52.252;9.124;2023-02-16T06:54:57;100279.97;;;4.11
49154;BMP280;49455;52.252;9.124;2023-02-16T06:59:58;100287.94;;;4.16
49154;BMP280;49455;52.252;9.124;2023-02-16T07:04:58;100276.88;;;4.44
49154;BMP280;49455;52.252;9.124;2023-02-16T07:09:59;100275.13;;;4.43
49154;BMP280;49455;52.252;9.124;2023-02-16T07:14:59;100283.78;;;4.59
49154;BMP280;49455;52.252;9.124;2023-02-16T07:20:00;100288.75;;;4.70
49154;BMP280;49455;52.252;9.124;2023-02-16T07:25:03;100286.91;;;4.82
49154;BMP280;49455;52.252;9.124;2023-02-16T07:30:04;100287.50;;;4.78
49154;BMP280;49455;52.252;9.124;2023-02-16T07:35:05;100294.59;;;4.82
49154;BMP280;49455;52.252;9.124;2023-02-16T07:40:06;100286.91;;;4.82
49154;BMP280;49455;52.252;9.124;2023-02-16T07:45:07;100306.88;;;5.02
49154;BMP280;49455;52.252;9.124;2023-02-16T07:50:08;100303.19;;;5.41
49154;BMP280;49455;52.252;9.124;2023-02-16T07:55:09;100296.78;;;5.63
49154;BMP280;49455;52.252;9.124;2023-02-16T08:00:10;100295.00;;;5.76
49154;BMP280;49455;52.252;9.124;2023-02-16T08:05:13;100287.69;;;5.82
49154;BMP280;49455;52.252;9.124;2023-02-16T08:10:14;100289.50;;;5.85
49154;BMP280;49455;52.252;9.124;2023-02-16T08:15:14;100283.00;;;5.75
49154;BMP280;49455;52.252;9.124;2023-02-16T08:20:15;100262.66;;;5.78
49154;BMP280;49455;52.252;9.124;2023-02-16T08:25:15;100271.16;;;5.77
49154;BMP280;49455;52.252;9.124;2023-02-16T08:30:16;100270.81;;;5.72
49154;BMP280;49455;52.252;9.124;2023-02-16T08:35:16;100267.38;;;5.57
49154;BMP280;49455;52.252;9.124;2023-02-16T08:40:16;100275.38;;;5.63
49154;BMP280;49455;52.252;9.124;2023-02-16T08:45:17;100277.19;;;5.64
49154;BMP280;49455;52.252;9.124;2023-02-16T08:50:17;100271.81;;;5.89
49154;BMP280;49455;52.252;9.124;2023-02-16T08:55:18;100263.81;;;5.99
49154;BMP280;49455;52.252;9.124;2023-02-16T09:00:19;100271.81;;;6.05
49154;BMP280;49455;52.252;9.124;2023-02-16T09:05:19;100278.09;;;6.10
49154;BMP280;49455;52.252;9.124;2023-02-16T09:10:20;100275.81;;;6.00
49154;BMP280;49455;52.252;9.124;2023-02-16T09:15:20;100286.81;;;6.13
49154;BMP280;49455;52.252;9.124;2023-02-16T09:20:21;100290.28;;;6.30
49154;BMP280;49455;52.252;9.124;2023-02-16T09:25:21;100281.59;;;6.28
49154;BMP280;49455;52.252;9.124;2023-02-16T09:30:21;100279.19;;;6.31
49154;BMP280;49455;52.252;9.124;2023-02-16T09:35:22;100294.13;;;6.37
49154;BMP280;49455;52.252;9.124;2023-02-16T09:40:22;100285.22;;;6.47
49154;BMP280;49455;52.252;9.124;2023-02-16T09:45:23;100278.88;;;6.56
49154;BMP280;49455;52.252;9.124;2023-02-16T09:50:27;100266.03;;;6.72
49154;BMP280;49455;52.252;9.124;2023-02-16T09:55:58;100264.50;;;6.60
49154;BMP280;49455;52.252;9.124;2023-02-16T10:06:57;100265.78;;;7.00
49154;BMP280;49455;52.252;9.124;2023-02-16T10:12:04;100266.31;;;7.28
49154;BMP280;49455;52.252;9.124;2023-02-16T10:17:25;100273.59;;;7.19
49154;BMP280;49455;52.252;9.124;2023-02-16T10:22:32;100275.91;;;7.15
49154;BMP280;49455;52.252;9.124;2023-02-16T10:27:37;100266.41;;;7.12
49154;BMP280;49455;52.252;9.124;2023-02-16T10:32:57;100272.84;;;7.04
49154;BMP280;49455;52.252;9.124;2023-02-16T10:43:24;100280.31;;;7.17
49154;BMP280;49455;52.252;9.124;2023-02-16T10:48:30;100262.72;;;7.42
49154;BMP280;49455;52.252;9.124;2023-02-16T10:53:51;100279.25;;;7.47
49154;BMP280;49455;52.252;9.124;2023-02-16T10:58:52;100267.88;;;7.59
49154;BMP280;49455;52.252;9.124;2023-02-16T11:03:52;100267.91;;;7.60
49154;BMP280;49455;52.252;9.124;2023-02-16T11:08:58;100274.59;;;7.74
49154;BMP280;49455;52.252;9.124;2023-02-16T11:14:03;100282.03;;;7.68
49154;BMP280;49455;52.252;9.124;2023-02-16T11:19:17;100279.88;;;7.77
49154;BMP280;49455;52.252;9.124;2023-02-16T11:24:36;100272.94;;;7.93
49154;BMP280;49455;52.252;9.124;2023-02-16T11:29:36;100263.81;;;8.00
49154;BMP280;49455;52.252;9.124;2023-02-16T11:34:50;100261.66;;;8.07
49154;BMP280;49455;52.252;9.124;2023-02-16T11:45:32;100268.75;;;8.31
49154;BMP280;49455;52.252;9.124;2023-02-16T11:50:35;100261.16;;;8.53
49154;BMP280;49455;52.252;9.124;2023-02-16T11:55:39;100280.53;;;8.64
49154;BMP280;49455;52.252;9.124;2023-02-16T12:01:14;100273.88;;;8.69
49154;BMP280;49455;52.252;9.124;2023-02-16T12:11:41;100250.50;;;9.03
49154;BMP280;49455;52.252;9.124;2023-02-16T12:22:38;100236.94;;;9.49
49154;BMP280;49455;52.252;9.124;2023-02-16T12:38:36;100246.22;;;9.24
49154;BMP280;49455;52.252;9.124;2023-02-16T12:44:02;100237.59;;;9.23
49154;BMP280;49455;52.252;9.124;2023-02-16T12:54:29;100213.91;;;9.53
49154;BMP280;49455;52.252;9.124;2023-02-16T12:59:45;100218.38;;;9.79
49154;BMP280;49455;52.252;9.124;2023-02-16T13:04:51;100211.34;;;9.75
49154;BMP280;49455;52.252;9.124;2023-02-16T13:15:04;100206.03;;;9.72
49154;BMP280;49455;52.252;9.124;2023-02-16T13:20:17;100198.38;;;9.52
49154;BMP280;49455;52.252;9.124;2023-02-16T13:46:25;100163.16;;;9.10
49154;BMP280;49455;52.252;9.124;2023-02-16T13:51:27;100136.09;;;9.00
49154;BMP280;49455;52.252;9.124;2023-02-16T13:56:38;100117.28;;;9.02
49154;BMP280;49455;52.252;9.124;2023-02-16T14:01:44;100101.97;;;9.06
49154;BMP280;49455;52.252;9.124;2023-02-16T14:06:44;100095.28;;;9.10
49154;BMP280;49455;52.252;9.124;2023-02-16T14:16:51;100091.84;;;9.11
49154;BMP280;49455;52.252;9.124;2023-02-16T14:21:52;100081.91;;;9.20
49154;BMP280;49455;52.252;9.124;2023-02-16T14:31:57;100065.22;;;9.55
49154;BMP280;49455;52.252;9.124;2023-02-16T14:37:09;100085.03;;;9.56
49154;BMP280;49455;52.252;9.124;2023-02-16T14:42:16;100104.53;;;9.48
49154;BMP280;49455;52.252;9.124;2023-02-16T15:03:48;100112.94;;;9.44
49154;BMP280;49455;52.252;9.124;2023-02-16T15:08:58;100113.00;;;9.46
49154;BMP280;49455;52.252;9.124;2023-02-16T15:14:08;100115.41;;;9.41
49154;BMP280;49455;52.252;9.124;2023-02-16T15:19:16;100109.19;;;9.36
49154;BMP280;49455;52.252;9.124;2023-02-16T15:24:22;100117.03;;;9.39
49154;BMP280;49455;52.252;9.124;2023-02-16T15:29:25;100110.38;;;9.44
49154;BMP280;49455;52.252;9.124;2023-02-16T15:34:29;100097.53;;;9.46
49154;BMP280;49455;52.252;9.124;2023-02-16T15:39:32;100095.91;;;9.48
49154;BMP280;49455;52.252;9.124;2023-02-16T15:44:34;100087.13;;;9.43
49154;BMP280;49455;52.252;9.124;2023-02-16T15:49:35;100092.91;;;9.37
49154;BMP280;49455;52.252;9.124;2023-02-16T15:54:36;100092.84;;;9.36
49154;BMP280;49455;52.252;9.124;2023-02-16T15:59:43;100102.22;;;9.34
49154;BMP280;49455;52.252;9.124;2023-02-16T16:04:48;100095.19;;;9.30
49154;BMP280;49455;52.252;9.124;2023-02-16T16:09:49;100102.06;;;9.30
49154;BMP280;49455;52.252;9.124;2023-02-16T16:14:57;100111.31;;;9.25
49154;BMP280;49455;52.252;9.124;2023-02-16T16:25:44;100101.84;;;9.24
49154;BMP280;49455;52.252;9.124;2023-02-16T16:30:45;100102.63;;;9.23
49154;BMP280;49455;52.252;9.124;2023-02-16T16:35:47;100114.63;;;9.21
49154;BMP280;49455;52.252;9.124;2023-02-16T16:40:51;100121.28;;;9.16
49154;BMP280;49455;52.252;9.124;2023-02-16T16:46:10;100090.22;;;9.13
49154;BMP280;49455;52.252;9.124;2023-02-16T16:56:24;100093.56;;;9.10
49154;BMP280;49455;52.252;9.124;2023-02-16T17:01:26;100089.97;;;9.07
49154;BMP280;49455;52.252;9.124;2023-02-16T17:06:27;100097.53;;;9.03
49154;BMP280;49455;52.252;9.124;2023-02-16T17:11:36;100093.34;;;9.05
49154;BMP280;49455;52.252;9.124;2023-02-16T17:16:40;100095.84;;;9.03
49154;BMP280;49455;52.252;9.124;2023-02-16T17:21:41;100087.03;;;8.98
49154;BMP280;49455;52.252;9.124;2023-02-16T17:26:42;100077.50;;;8.96
49154;BMP280;49455;52.252;9.124;2023-02-16T17:31:42;100066.25;;;8.94
49154;BMP280;49455;52.252;9.124;2023-02-16T17:36:43;100066.41;;;8.98
49154;BMP280;49455;52.252;9.124;2023-02-16T17:41:43;100053.66;;;9.01
49154;BMP280;49455;52.252;9.124;2023-02-16T17:46:44;100053.75;;;9.04
49154;BMP280;49455;52.252;9.124;2023-02-16T17:51:45;100057.94;;;9.01
49154;BMP280;49455;52.252;9.124;2023-02-16T17:56:46;100043.34;;;9.01
49154;BMP280;49455;52.252;9.124;2023-02-16T18:01:46;100042.28;;;8.96
49154;BMP280;49455;52.252;9.124;2023-02-16T18:06:47;100035.50;;;8.98
49154;BMP280;49455;52.252;9.124;2023-02-16T18:11:48;100042.34;;;8.98
49154;BMP280;49455;52.252;9.124;2023-02-16T18:16:51;100034.63;;;8.98
49154;BMP280;49455;52.252;9.124;2023-02-16T18:21:52;100040.53;;;8.95
49154;BMP280;49455;52.252;9.124;2023-02-16T18:26:53;100040.13;;;8.85
49154;BMP280;49455;52.252;9.124;2023-02-16T18:31:53;100033.91;;;8.80
49154;BMP280;49455;52.252;9.124;2023-02-16T18:36:53;100022.78;;;8.81
49154;BMP280;49455;52.252;9.124;2023-02-16T18:41:54;100023.09;;;8.67
49154;BMP280;49455;52.252;9.124;2023-02-16T18:46:54;100008.31;;;8.63
49154;BMP280;49455;52.252;9.124;2023-02-16T18:51:56;100003.78;;;8.57
49154;BMP280;49455;52.252;9.124;2023-02-16T18:56:56;99993.31;;;8.53
49154;BMP280;49455;52.252;9.124;2023-02-16T19:01:58;99987.91;;;8.47
49154;BMP280;49455;52.252;9.124;2023-02-16T19:06:58;99989.44;;;8.42
49154;BMP280;49455;52.252;9.124;2023-02-16T19:11:59;99997.34;;;8.46
49154;BMP280;49455;52.252;9.124;2023-02-16T19:16:59;99999.09;;;8.47
49154;BMP280;49455;52.252;9.124;2023-02-16T19:22:00;99981.78;;;8.44
49154;BMP280;49455;52.252;9.124;2023-02-16T19:27:00;99985.09;;;8.41
49154;BMP280;49455;52.252;9.124;2023-02-16T19:32:01;99975.91;;;8.47
49154;BMP280;49455;52.252;9.124;2023-02-16T19:37:02;99978.38;;;8.44
49154;BMP280;49455;52.252;9.124;2023-02-16T19:42:02;99978.63;;;8.50
49154;BMP280;49455;52.252;9.124;2023-02-16T19:47:03;99978.63;;;8.50
49154;BMP280;49455;52.252;9.124;2023-02-16T19:52:03;99989.69;;;8.48
49154;BMP280;49455;52.252;9.124;2023-02-16T19:57:04;99988.78;;;8.47
49154;BMP280;49455;52.252;9.124;2023-02-16T20:02:05;99999.09;;;8.47
49154;BMP280;49455;52.252;9.124;2023-02-16T20:07:06;99998.94;;;8.43
49154;BMP280;49455;52.252;9.124;2023-02-16T20:12:06;99996.34;;;8.43
49154;BMP280;49455;52.252;9.124;2023-02-16T20:17:07;99990.50;;;8.47
49154;BMP280;49455;52.252;9.124;2023-02-16T20:22:08;99986.84;;;8.42
49154;BMP280;49455;52.252;9.124;2023-02-16T20:27:10;99978.78;;;8.33
49154;BMP280;49455;52.252;9.124;2023-02-16T20:32:10;99977.19;;;8.37
49154;BMP280;49455;52.252;9.124;2023-02-16T20:37:11;99983.38;;;8.40
49154;BMP280;49455;52.252;9.124;2023-02-16T20:42:11;99973.81;;;8.38
49154;BMP280;49455;52.252;9.124;2023-02-16T20:47:11;99972.97;;;8.39
49154;BMP280;49455;52.252;9.124;2023-02-16T20:52:12;99970.09;;;8.31
49154;BMP280;49455;52.252;9.124;2023-02-16T20:57:12;99971.44;;;8.22
49154;BMP280;49455;52.252;9.124;2023-02-16T21:02:13;99961.91;;;8.19
49154;BMP280;49455;52.252;9.124;2023-02-16T21:07:13;99954.38;;;8.24
49154;BMP280;49455;52.252;9.124;2023-02-16T21:12:13;99957.81;;;8.24
49154;BMP280;49455;52.252;9.124;2023-02-16T21:17:14;99954.66;;;8.31
49154;BMP280;49455;52.252;9.124;2023-02-16T21:22:14;99963.44;;;8.36
49154;BMP280;49455;52.252;9.124;2023-02-16T21:27:15;99960.00;;;8.36
49154;BMP280;49455;52.252;9.124;2023-02-16T21:32:15;99950.34;;;8.30
49154;BMP280;49455;52.252;9.124;2023-02-16T21:37:15;99946.13;;;8.32
49154;BMP280;49455;52.252;9.124;2023-02-16T21:42:16;99936.59;;;8.30
49154;BMP280;49455;52.252;9.124;2023-02-16T21:47:16;99928.78;;;8.28
49154;BMP280;49455;52.252;9.124;2023-02-16T21:52:17;99922.78;;;8.28
49154;BMP280;49455;52.252;9.124;2023-02-16T21:57:17;99912.34;;;8.25
49154;BMP280;49455;52.252;9.124;2023-02-16T22:02:17;99913.22;;;8.25
49154;BMP280;49455;52.252;9.124;2023-02-16T22:07:18;99913.22;;;8.25
49154;BMP280;49455;52.252;9.124;2023-02-16T22:12:18;99904.72;;;8.26
49154;BMP280;49455;52.252;9.124;2023-02-16T22:17:19;99902.94;;;8.25
49154;BMP280;49455;52.252;9.124;2023-02-16T22:22:19;99897.66;;;8.22
49154;BMP280;49455;52.252;9.124;2023-02-16T22:27:19;99896.97;;;8.26
49154;BMP280;49455;52.252;9.124;2023-02-16T22:32:20;99909.84;;;8.26
49154;BMP280;49455;52.252;9.124;2023-02-16T22:37:20;99899.59;;;8.28
49154;BMP280;49455;52.252;9.124;2023-02-16T22:42:21;99897.09;;;8.29
49154;BMP280;49455;52.252;9.124;2023-02-16T22:47:22;99903.81;;;8.26
49154;BMP280;49455;52.252;9.124;2023-02-16T22:52:22;99905.47;;;8.24
49154;BMP280;49455;52.252;9.124;2023-02-16T22:57:22;99896.97;;;8.26
49154;BMP280;49455;52.252;9.124;2023-02-16T23:02:23;99891.00;;;8.27
49154;BMP280;49455;52.252;9.124;2023-02-16T23:07:23;99885.28;;;8.34
49154;BMP280;49455;52.252;9.124;2023-02-16T23:12:24;99885.22;;;8.33
49154;BMP280;49455;52.252;9.124;2023-02-16T23:17:24;99892.09;;;8.34
49154;BMP280;49455;52.252;9.124;2023-02-16T23:22:24;99887.69;;;8.30
49154;BMP280;49455;52.252;9.124;2023-02-16T23:27:25;99880.00;;;8.31
49154;BMP280;49455;52.252;9.124;2023-02-16T23:32:25;99875.88;;;8.35
49154;BMP280;49455;52.252;9.124;2023-02-16T23:37:30;99874.16;;;8.35
49154;BMP280;49455;52.252;9.124;2023-02-16T23:42:31;99874.09;;;8.34
49154;BMP280;49455;52.252;9.124;2023-02-16T23:47:31;99862.88;;;8.32
49154;BMP280;49455;52.252;9.124;2023-02-16T23:52:32;99858.72;;;8.35
49154;BMP280;49455;52.252;9.124;2023-02-16T23:57:32;99853.56;;;8.35
